Time;durP1;ratioP1;P1;durP2;ratioP2;P2;SDS_P1;SDS_P2;PMS_P1;PMS_P2;Temp;Humidity;BMP_temperature;BMP_pressure;BME280_temperature;BME280_humidity;BME280_pressure;Samples;Min_cycle;Max_cycle;Signal;HPM_P1;HPM_P2
2022/01/09 00:01:01;;;;;;;8.32;2.97;;;1.90;85.70;;;;;;4878078;29;20050;-76
2022/01/09 00:03:27;;;;;;;4.13;2.50;;;1.80;85.20;;;;;;4882967;29;20036;-73
2022/01/09 00:05:53;;;;;;;5.90;2.75;;;1.80;85.80;;;;;;4881997;29;20033;-72
2022/01/09 00:08:18;;;;;;;7.38;2.95;;;1.70;85.50;;;;;;4881045;29;20043;-72
2022/01/09 00:10:47;;;;;;;5.93;2.88;;;1.70;86.10;;;;;;4883152;29;20839;-70
2022/01/09 00:13:13;;;;;;;7.38;2.95;;;1.70;85.30;;;;;;4897896;29;20052;-71
2022/01/09 00:15:39;;;;;;;5.18;2.63;;;1.70;85.70;;;;;;4878663;29;20033;-74
2022/01/09 00:18:05;;;;;;;7.20;3.08;;;1.80;85.10;;;;;;4881219;29;20063;-74
2022/01/09 00:20:31;;;;;;;3.90;2.90;;;1.80;84.60;;;;;;4897057;29;20040;-73
2022/01/09 00:22:57;;;;;;;5.45;2.45;;;1.90;84.60;;;;;;4882045;29;20038;-73
2022/01/09 00:25:24;;;;;;;5.60;2.70;;;1.90;83.90;;;;;;4881486;29;20060;-73
2022/01/09 00:27:51;;;;;;;4.88;2.50;;;1.90;84.30;;;;;;4897456;29;20036;-73
2022/01/09 00:30:19;;;;;;;5.55;2.40;;;1.90;84.10;;;;;;4881480;29;20028;-73
2022/01/09 00:32:45;;;;;;;4.47;2.40;;;1.90;84.00;;;;;;4882714;29;20040;-72
2022/01/09 00:35:12;;;;;;;6.25;2.45;;;2.00;84.00;;;;;;4898143;29;20040;-72
2022/01/09 00:37:38;;;;;;;7.80;3.03;;;1.90;83.90;;;;;;4882019;29;20036;-72
2022/01/09 00:40:06;;;;;;;5.45;2.42;;;1.90;84.50;;;;;;4882217;29;20412;-73
2022/01/09 00:42:32;;;;;;;7.35;3.22;;;1.90;84.00;;;;;;4884367;29;20478;-75
2022/01/09 00:44:58;;;;;;;7.32;2.70;;;1.90;84.00;;;;;;4880677;29;20032;-73
2022/01/09 00:47:23;;;;;;;8.48;3.28;;;1.80;83.70;;;;;;4881854;29;20175;-73
2022/01/09 00:49:49;;;;;;;4.90;2.80;;;1.90;83.80;;;;;;4881307;29;20148;-72
2022/01/09 00:52:15;;;;;;;4.60;2.78;;;1.90;84.00;;;;;;4883883;29;20044;-75
2022/01/09 00:54:41;;;;;;;5.65;2.15;;;1.90;84.00;;;;;;4883750;29;20036;-78
2022/01/09 00:57:06;;;;;;;3.88;2.15;;;1.80;83.90;;;;;;4894357;29;20037;-72
2022/01/09 00:59:32;;;;;;;3.28;2.55;;;1.90;84.10;;;;;;4881913;29;20850;-72
2022/01/09 01:01:58;;;;;;;3.55;2.22;;;1.90;83.40;;;;;;4880857;29;20035;-71
2022/01/09 01:04:24;;;;;;;7.57;2.75;;;1.80;83.30;;;;;;4881698;29;20047;-71
2022/01/09 01:06:51;;;;;;;8.90;2.50;;;1.90;83.30;;;;;;4897609;29;20110;-71
2022/01/09 01:09:17;;;;;;;7.35;2.53;;;1.90;82.60;;;;;;4883343;29;20036;-71
2022/01/09 01:11:43;;;;;;;4.43;2.72;;;2.00;82.90;;;;;;4882159;29;20172;-72
2022/01/09 01:14:10;;;;;;;4.38;2.50;;;2.10;82.80;;;;;;4885694;29;20796;-71
2022/01/09 01:16:35;;;;;;;5.78;2.38;;;2.10;82.40;;;;;;4879064;29;20029;-71
2022/01/09 01:19:02;;;;;;;4.47;2.53;;;2.00;82.50;;;;;;4883091;29;20832;-72
2022/01/09 01:21:28;;;;;;;5.43;2.35;;;2.10;82.00;;;;;;4892910;29;20088;-71
2022/01/09 01:23:53;;;;;;;6.72;2.63;;;2.10;82.10;;;;;;4883184;29;20036;-71
2022/01/09 01:26:19;;;;;;;3.45;2.35;;;2.10;82.40;;;;;;4880217;29;20140;-71
2022/01/09 01:28:45;;;;;;;4.63;2.53;;;2.00;81.70;;;;;;4880673;29;20513;-78
2022/01/09 01:31:11;;;;;;;4.50;2.50;;;2.10;82.00;;;;;;4881633;29;20104;-70
2022/01/09 01:33:37;;;;;;;5.32;2.75;;;2.10;82.00;;;;;;4881337;29;20110;-71
2022/01/09 01:36:03;;;;;;;3.53;2.33;;;2.10;81.70;;;;;;4882890;29;20821;-71
2022/01/09 01:38:29;;;;;;;4.40;2.60;;;2.10;82.60;;;;;;4881033;29;20055;-72
2022/01/09 01:40:55;;;;;;;5.53;2.88;;;2.10;81.70;;;;;;4880377;29;20029;-71
2022/01/09 01:43:20;;;;;;;5.25;3.20;;;2.00;81.30;;;;;;4878410;29;20155;-68
2022/01/09 01:45:46;;;;;;;6.50;3.10;;;2.00;81.90;;;;;;4875622;29;20028;-72
2022/01/09 01:48:12;;;;;;;7.55;3.35;;;2.00;82.30;;;;;;4879166;29;20441;-71
2022/01/09 01:50:38;;;;;;;8.77;2.88;;;1.90;81.80;;;;;;4877116;29;20041;-71
2022/01/09 01:53:07;;;;;;;6.82;3.28;;;2.00;82.80;;;;;;4875974;29;20816;-70
2022/01/09 01:55:36;;;;;;;8.60;4.00;;;2.00;82.70;;;;;;4876885;29;20125;-71
2022/01/09 01:58:07;;;;;;;5.85;3.10;;;2.00;82.60;;;;;;4878920;29;20046;-70
2022/01/09 02:00:33;;;;;;;7.63;3.67;;;2.00;81.80;;;;;;4895080;29;20068;-72
2022/01/09 02:03:00;;;;;;;9.68;3.55;;;1.90;82.10;;;;;;4876037;29;20290;-73
2022/01/09 02:05:26;;;;;;;9.55;3.78;;;1.80;82.40;;;;;;4879691;29;20486;-72
2022/01/09 02:07:52;;;;;;;7.47;3.08;;;1.60;82.30;;;;;;4874927;29;20040;-72
2022/01/09 02:10:18;;;;;;;6.63;3.72;;;1.60;83.00;;;;;;4878776;29;20890;-71
2022/01/09 02:12:44;;;;;;;7.10;3.75;;;1.60;83.80;;;;;;4879415;29;20037;-70
2022/01/09 02:15:46;;;;;;;7.47;3.53;;;1.60;83.40;;;;;;4889955;29;20508;-72
2022/01/09 02:18:15;;;;;;;10.23;4.07;;;1.50;83.80;;;;;;4840872;29;20086;-71
2022/01/09 02:20:41;;;;;;;7.43;3.95;;;1.40;84.00;;;;;;4868688;29;20095;-70
2022/01/09 02:23:08;;;;;;;9.85;3.55;;;1.40;84.10;;;;;;4892054;29;20888;-71
2022/01/09 02:25:35;;;;;;;8.25;4.15;;;1.40;84.50;;;;;;4876447;29;20064;-71
2022/01/09 02:28:01;;;;;;;7.05;3.38;;;1.40;83.90;;;;;;4878964;29;20045;-72
2022/01/09 02:30:29;;;;;;;10.15;4.03;;;1.30;84.50;;;;;;4876066;29;20096;-71
2022/01/09 02:32:54;;;;;;;7.65;3.50;;;1.50;84.60;;;;;;4890609;29;20046;-71
2022/01/09 02:35:24;;;;;;;13.13;3.95;;;1.40;83.90;;;;;;4890908;29;20790;-71
2022/01/09 02:37:50;;;;;;;9.80;3.72;;;1.40;83.60;;;;;;4873634;29;20150;-73
2022/01/09 02:40:16;;;;;;;9.68;3.88;;;1.50;84.20;;;;;;4879681;29;20053;-73
2022/01/09 02:42:41;;;;;;;7.40;3.30;;;1.30;83.90;;;;;;4876241;29;20025;-74
2022/01/09 02:45:08;;;;;;;7.55;3.53;;;1.40;84.70;;;;;;4878661;29;20029;-70
2022/01/09 02:47:34;;;;;;;7.13;3.70;;;1.40;84.60;;;;;;4880224;29;20116;-70
2022/01/09 02:50:13;;;;;;;6.07;3.10;;;1.40;84.00;;;;;;4884338;29;20485;-69
2022/01/09 02:52:50;;;;;;;6.20;3.70;;;1.50;83.60;;;;;;4875463;29;20120;-69
2022/01/09 02:55:17;;;;;;;7.38;3.65;;;1.50;83.20;;;;;;4881014;29;20599;-69
2022/01/09 02:57:53;;;;;;;6.65;3.50;;;1.50;84.30;;;;;;4883759;29;20526;-69
2022/01/09 03:00:30;;;;;;;5.63;3.70;;;1.40;83.60;;;;;;4895297;29;20036;-69
2022/01/09 03:02:56;;;;;;;11.85;3.80;;;1.50;83.80;;;;;;4884972;29;20493;-69
2022/01/09 03:05:23;;;;;;;7.47;3.67;;;1.50;83.80;;;;;;4879857;29;20051;-70
2022/01/09 03:07:50;;;;;;;8.88;3.67;;;1.50;83.30;;;;;;4882164;29;20146;-68
2022/01/09 03:10:18;;;;;;;6.10;3.50;;;1.50;83.30;;;;;;4882942;29;20051;-69
2022/01/09 03:12:44;;;;;;;5.30;3.00;;;1.40;84.30;;;;;;4897035;29;20112;-69
2022/01/09 03:15:11;;;;;;;4.47;3.00;;;1.40;84.10;;;;;;4884784;29;20063;-69
2022/01/09 03:17:38;;;;;;;8.93;4.47;;;1.30;84.30;;;;;;4877344;29;20039;-69
2022/01/09 03:20:06;;;;;;;8.15;4.28;;;1.40;84.80;;;;;;4877514;29;20131;-69
2022/01/09 03:22:32;;;;;;;7.68;3.75;;;1.40;84.60;;;;;;4874477;29;20037;-70
2022/01/09 03:24:57;;;;;;;8.65;4.03;;;1.40;83.80;;;;;;4889577;29;20804;-70
2022/01/09 03:27:23;;;;;;;9.50;4.13;;;1.40;84.00;;;;;;4882840;29;20688;-68
2022/01/09 03:29:49;;;;;;;8.68;3.75;;;1.50;84.30;;;;;;4877752;29;20037;-70
2022/01/09 03:32:15;;;;;;;8.18;3.67;;;1.40;84.10;;;;;;4877894;29;20029;-69
2022/01/09 03:34:41;;;;;;;10.73;3.63;;;1.50;84.30;;;;;;4877151;29;20496;-69
2022/01/09 03:37:06;;;;;;;8.68;3.60;;;1.50;83.80;;;;;;4878497;29;20148;-69
2022/01/09 03:39:32;;;;;;;9.07;3.78;;;1.50;84.10;;;;;;4879716;29;20213;-69
2022/01/09 03:41:59;;;;;;;8.77;3.90;;;1.40;84.10;;;;;;4872235;29;20100;-67
2022/01/09 03:44:26;;;;;;;7.55;4.28;;;1.40;84.50;;;;;;4897938;29;20040;-69
2022/01/09 03:46:52;;;;;;;7.32;3.33;;;1.50;85.00;;;;;;4872356;29;20045;-69
2022/01/09 03:49:18;;;;;;;12.15;4.20;;;1.60;84.30;;;;;;4880321;29;20057;-69
2022/01/09 03:51:46;;;;;;;9.05;4.20;;;1.60;83.60;;;;;;4877529;29;20041;-66
2022/01/09 03:54:13;;;;;;;7.07;3.65;;;1.40;84.10;;;;;;4880302;29;20032;-66
2022/01/09 03:56:39;;;;;;;8.95;4.05;;;1.40;84.80;;;;;;4879122;29;20040;-67
2022/01/09 03:59:04;;;;;;;6.53;3.78;;;1.30;85.00;;;;;;4876255;29;20052;-67
2022/01/09 04:01:30;;;;;;;14.18;4.38;;;1.20;84.60;;;;;;4879122;29;20037;-68
2022/01/09 04:03:56;;;;;;;8.80;4.35;;;1.30;85.10;;;;;;4876036;29;20036;-69
2022/01/09 04:06:23;;;;;;;7.88;3.50;;;1.30;85.40;;;;;;4880916;29;20116;-67
2022/01/09 04:08:51;;;;;;;11.05;4.53;;;1.30;85.60;;;;;;4883517;29;20111;-68
2022/01/09 04:11:23;;;;;;;9.23;3.80;;;1.40;85.10;;;;;;4878144;29;20529;-68
2022/01/09 04:13:49;;;;;;;7.82;4.22;;;1.30;84.80;;;;;;4881425;29;20067;-69
2022/01/09 04:16:15;;;;;;;11.20;4.28;;;1.30;85.20;;;;;;4878089;29;20025;-69
2022/01/09 04:18:41;;;;;;;8.43;4.45;;;1.30;85.30;;;;;;4877083;29;20021;-66
2022/01/09 04:21:06;;;;;;;7.63;3.70;;;1.20;85.90;;;;;;4877781;29;20028;-65
2022/01/09 04:23:32;;;;;;;7.82;4.35;;;1.20;86.00;;;;;;4878891;29;20358;-68
2022/01/09 04:25:58;;;;;;;6.35;3.97;;;1.20;86.00;;;;;;4881900;29;20040;-68
2022/01/09 04:28:24;;;;;;;8.63;4.15;;;1.20;86.20;;;;;;4881512;29;20059;-68
2022/01/09 04:30:49;;;;;;;8.85;3.92;;;1.20;86.10;;;;;;4870495;29;20909;-68
2022/01/09 04:33:15;;;;;;;8.55;3.78;;;1.20;86.00;;;;;;4878059;29;20052;-66
2022/01/09 04:35:41;;;;;;;6.68;3.72;;;1.20;86.20;;;;;;4883160;29;20040;-68
2022/01/09 04:38:08;;;;;;;9.70;3.97;;;1.20;85.50;;;;;;4898500;29;20047;-69
2022/01/09 04:40:33;;;;;;;7.30;3.60;;;1.30;85.90;;;;;;4878765;29;20537;-69
2022/01/09 04:43:02;;;;;;;9.52;3.85;;;1.30;85.60;;;;;;4881652;29;20044;-69
2022/01/09 04:45:29;;;;;;;7.40;3.55;;;1.20;86.20;;;;;;4897636;29;20942;-71
2022/01/09 04:48:00;;;;;;;9.73;4.47;;;1.20;86.00;;;;;;4896169;29;20489;-69
2022/01/09 04:50:29;;;;;;;8.30;3.47;;;1.20;86.00;;;;;;4882077;29;20044;-69
2022/01/09 04:53:04;;;;;;;8.38;4.13;;;1.20;86.30;;;;;;4883727;29;20075;-68
2022/01/09 04:55:32;;;;;;;8.43;3.93;;;1.20;86.70;;;;;;4879205;29;20032;-69
2022/01/09 04:57:58;;;;;;;9.50;3.42;;;1.10;86.00;;;;;;4879514;29;20301;-70
2022/01/09 05:00:24;;;;;;;8.82;3.75;;;1.10;86.70;;;;;;4883039;29;20033;-69
2022/01/09 05:02:50;;;;;;;7.70;3.88;;;1.20;87.10;;;;;;4884316;29;20080;-69
2022/01/09 05:05:17;;;;;;;6.53;3.30;;;1.30;85.90;;;;;;4882911;29;20120;-69
2022/01/09 05:07:43;;;;;;;6.38;3.38;;;1.40;86.20;;;;;;4879346;29;20028;-69
2022/01/09 05:10:10;;;;;;;5.75;3.22;;;1.50;85.90;;;;;;4882916;29;20080;-69
2022/01/09 05:12:36;;;;;;;7.65;2.97;;;1.70;84.70;;;;;;4880177;29;20040;-70
2022/01/09 05:15:06;;;;;;;6.60;3.50;;;1.60;84.50;;;;;;4883262;29;20036;-69
2022/01/09 05:17:31;;;;;;;7.45;3.05;;;1.70;84.30;;;;;;4882072;29;20036;-69
2022/01/09 05:19:57;;;;;;;5.25;2.90;;;1.80;84.00;;;;;;4883915;29;20866;-69
2022/01/09 05:22:30;;;;;;;5.00;2.88;;;1.80;83.80;;;;;;4896867;29;20493;-70
2022/01/09 05:25:06;;;;;;;9.63;3.55;;;1.70;83.80;;;;;;4883746;29;20083;-69
2022/01/09 05:27:32;;;;;;;9.57;3.83;;;1.70;84.30;;;;;;4880495;29;20094;-69
2022/01/09 05:29:58;;;;;;;6.05;3.17;;;1.60;84.50;;;;;;4886910;29;20052;-69
2022/01/09 05:32:24;;;;;;;6.43;2.95;;;1.60;84.10;;;;;;4883033;29;20052;-69
2022/01/09 05:34:50;;;;;;;5.95;3.45;;;1.70;84.30;;;;;;4881089;29;20039;-70
2022/01/09 05:37:16;;;;;;;6.45;3.45;;;1.70;84.30;;;;;;4879675;29;20664;-69
2022/01/09 05:39:42;;;;;;;7.57;3.50;;;1.70;84.20;;;;;;4883190;29;20045;-69
2022/01/09 05:42:10;;;;;;;7.25;3.58;;;1.70;84.50;;;;;;4880757;29;20047;-70
2022/01/09 05:44:37;;;;;;;8.23;3.30;;;1.70;84.50;;;;;;4882288;29;20051;-69
2022/01/09 05:47:03;;;;;;;6.95;3.17;;;1.80;84.60;;;;;;4897672;29;20040;-69
2022/01/09 05:49:29;;;;;;;5.35;2.90;;;1.80;84.00;;;;;;4878637;29;20040;-69
2022/01/09 05:51:55;;;;;;;5.93;2.85;;;1.80;84.10;;;;;;4880447;29;20028;-69
2022/01/09 05:54:21;;;;;;;8.23;3.17;;;1.80;83.90;;;;;;4883116;29;20647;-70
2022/01/09 05:56:47;;;;;;;11.23;3.55;;;1.90;83.60;;;;;;4880190;29;20036;-69
2022/01/09 05:59:13;;;;;;;6.65;3.42;;;2.00;83.70;;;;;;4881451;29;20039;-69
2022/01/09 06:01:39;;;;;;;9.48;3.55;;;2.00;83.30;;;;;;4882327;29;20143;-69
2022/01/09 06:04:05;;;;;;;6.45;2.95;;;2.00;83.60;;;;;;4877620;29;20045;-69
2022/01/09 06:06:32;;;;;;;6.82;3.20;;;2.10;83.10;;;;;;4879610;29;20079;-70
2022/01/09 06:08:58;;;;;;;8.38;3.45;;;2.10;83.00;;;;;;4881669;29;20032;-70
2022/01/09 06:11:24;;;;;;;6.85;3.33;;;2.10;83.20;;;;;;4882609;29;20295;-70
2022/01/09 06:13:49;;;;;;;8.88;3.13;;;2.00;83.80;;;;;;4880683;29;20753;-70
2022/01/09 06:16:15;;;;;;;5.40;2.72;;;2.00;83.80;;;;;;4885383;29;20032;-69
2022/01/09 06:18:41;;;;;;;8.43;3.10;;;2.10;83.80;;;;;;4889048;29;20028;-70
2022/01/09 06:21:06;;;;;;;8.52;3.47;;;2.20;83.50;;;;;;4889972;29;20849;-70
2022/01/09 06:23:32;;;;;;;6.60;3.25;;;2.30;83.40;;;;;;4887913;29;20028;-70
2022/01/09 06:25:58;;;;;;;5.97;2.83;;;2.30;82.80;;;;;;4886924;29;20889;-70
2022/01/09 06:28:24;;;;;;;6.90;3.15;;;2.40;82.80;;;;;;4888712;29;20040;-70
2022/01/09 06:30:50;;;;;;;7.53;2.92;;;2.30;82.60;;;;;;4888119;29;20083;-70
2022/01/09 06:33:16;;;;;;;6.38;3.17;;;2.30;82.40;;;;;;4886823;29;20282;-70
2022/01/09 06:35:42;;;;;;;6.57;3.05;;;2.30;83.00;;;;;;4905990;29;20441;-70
2022/01/09 06:38:08;;;;;;;5.82;2.80;;;2.30;82.90;;;;;;4888028;29;20048;-70
2022/01/09 06:40:35;;;;;;;7.85;3.03;;;2.30;83.00;;;;;;4902848;29;20139;-70
2022/01/09 06:43:01;;;;;;;6.50;2.83;;;2.30;83.00;;;;;;4889510;29;20075;-70
2022/01/09 06:45:27;;;;;;;8.02;3.30;;;2.40;82.70;;;;;;4889629;29;20515;-69
2022/01/09 06:47:54;;;;;;;5.97;3.17;;;2.40;82.40;;;;;;4900472;29;20052;-70
2022/01/09 06:50:21;;;;;;;7.63;3.45;;;2.40;82.70;;;;;;4890539;29;20044;-70
2022/01/09 06:52:47;;;;;;;5.28;2.90;;;2.40;83.10;;;;;;4890929;29;20028;-69
2022/01/09 06:55:13;;;;;;;4.65;2.53;;;2.30;83.10;;;;;;4890332;29;20068;-69
2022/01/09 06:57:39;;;;;;;7.00;2.92;;;2.30;83.40;;;;;;4885350;29;20041;-70
2022/01/09 07:00:07;;;;;;;5.40;2.78;;;2.40;83.00;;;;;;4890008;29;20056;-70
2022/01/09 07:02:33;;;;;;;4.55;2.80;;;2.30;83.30;;;;;;4890639;29;20043;-70
2022/01/09 07:04:58;;;;;;;5.82;2.65;;;2.40;83.20;;;;;;4886288;29;20037;-70
2022/01/09 07:07:24;;;;;;;9.07;2.92;;;2.40;82.40;;;;;;4885766;29;20044;-70
2022/01/09 07:09:50;;;;;;;7.57;2.83;;;2.40;82.80;;;;;;4901430;29;20164;-70
2022/01/09 07:12:16;;;;;;;3.95;2.58;;;2.40;82.80;;;;;;4889622;29;20131;-69
2022/01/09 07:14:42;;;;;;;4.72;2.00;;;2.50;83.00;;;;;;4901751;29;20041;-69
2022/01/09 07:17:10;;;;;;;6.00;2.47;;;2.40;82.20;;;;;;4885762;29;20044;-70
2022/01/09 07:19:37;;;;;;;5.10;2.50;;;2.50;82.50;;;;;;4888773;29;20120;-69
2022/01/09 07:22:04;;;;;;;4.90;2.40;;;2.60;82.70;;;;;;4885160;29;20039;-69
2022/01/09 07:24:30;;;;;;;5.03;2.00;;;2.60;82.00;;;;;;4893143;29;20052;-69
2022/01/09 07:26:56;;;;;;;4.63;2.20;;;2.60;82.60;;;;;;4884398;29;20048;-69
2022/01/09 07:29:22;;;;;;;5.00;2.42;;;2.70;82.10;;;;;;4897115;29;20047;-69
2022/01/09 07:31:47;;;;;;;4.80;2.38;;;2.70;82.00;;;;;;4900339;29;20738;-69
2022/01/09 07:34:13;;;;;;;5.20;2.72;;;2.70;81.60;;;;;;4884846;29;20096;-69
2022/01/09 07:36:39;;;;;;;5.75;2.53;;;2.70;81.40;;;;;;4883563;29;20036;-70
2022/01/09 07:39:05;;;;;;;4.28;2.28;;;2.80;81.70;;;;;;4886116;29;20553;-69
2022/01/09 07:41:31;;;;;;;3.55;2.35;;;2.90;81.20;;;;;;4892592;29;20123;-68
2022/01/09 07:43:56;;;;;;;6.72;2.88;;;2.90;80.70;;;;;;4884245;29;20068;-69
2022/01/09 07:46:22;;;;;;;3.72;2.30;;;2.90;80.90;;;;;;4884177;29;20120;-67
2022/01/09 07:48:48;;;;;;;5.78;2.40;;;2.90;80.30;;;;;;4887993;29;20028;-70
2022/01/09 07:51:13;;;;;;;3.80;2.30;;;2.90;80.80;;;;;;4899543;29;20037;-71
2022/01/09 07:53:39;;;;;;;3.35;2.30;;;2.90;80.20;;;;;;4888871;29;20033;-71
2022/01/09 07:56:08;;;;;;;3.47;2.20;;;3.00;80.50;;;;;;4890962;29;20032;-68
2022/01/09 07:58:33;;;;;;;6.45;2.10;;;3.00;80.40;;;;;;4886729;29;20043;-68
2022/01/09 08:00:59;;;;;;;3.10;2.40;;;3.00;80.50;;;;;;4885232;29;20036;-69
2022/01/09 08:03:25;;;;;;;6.63;2.53;;;3.00;80.40;;;;;;4884547;29;21799;-68
2022/01/09 08:05:50;;;;;;;4.47;2.35;;;3.10;79.40;;;;;;4883725;29;20028;-68
2022/01/09 08:08:16;;;;;;;6.22;2.20;;;3.00;79.80;;;;;;4886325;29;20124;-69
2022/01/09 08:10:42;;;;;;;3.67;2.08;;;3.10;79.70;;;;;;4885027;29;20041;-68
2022/01/09 08:13:07;;;;;;;5.65;2.35;;;3.10;79.40;;;;;;4887007;29;20040;-69
2022/01/09 08:15:33;;;;;;;4.70;2.00;;;3.20;78.70;;;;;;4891982;29;20052;-69
2022/01/09 08:17:59;;;;;;;5.50;2.42;;;3.20;78.90;;;;;;4890182;29;20032;-68
2022/01/09 08:20:25;;;;;;;4.82;2.55;;;3.10;79.30;;;;;;4894224;29;20028;-69
2022/01/09 08:22:50;;;;;;;4.55;2.00;;;3.30;78.90;;;;;;4897823;29;20040;-68
2022/01/09 08:25:18;;;;;;;4.30;3.00;;;3.10;78.90;;;;;;4885988;29;20131;-69
2022/01/09 08:27:46;;;;;;;7.32;2.55;;;3.20;78.50;;;;;;4889200;29;20032;-69
2022/01/09 08:30:14;;;;;;;4.35;2.20;;;3.10;78.50;;;;;;4883445;29;20032;-69
2022/01/09 08:32:39;;;;;;;4.78;2.85;;;3.20;78.80;;;;;;4885243;29;20851;-68
2022/01/09 08:35:06;;;;;;;4.10;2.03;;;3.20;79.10;;;;;;4902089;29;20040;-68
2022/01/09 08:37:32;;;;;;;6.30;2.70;;;3.30;78.90;;;;;;4900364;29;20449;-69
2022/01/09 08:39:58;;;;;;;3.10;1.90;;;3.30;78.30;;;;;;4902348;29;20085;-69
2022/01/09 08:42:24;;;;;;;3.65;2.33;;;3.40;78.20;;;;;;4884778;29;20088;-68
2022/01/09 08:44:50;;;;;;;4.43;2.63;;;3.40;78.00;;;;;;4882793;29;20044;-69
2022/01/09 08:47:16;;;;;;;3.58;2.05;;;3.50;77.40;;;;;;4890551;29;20067;-68
2022/01/09 08:49:41;;;;;;;4.82;1.80;;;3.50;76.90;;;;;;4888168;29;20127;-69
2022/01/09 08:52:08;;;;;;;3.67;2.03;;;3.60;76.50;;;;;;4883971;29;20123;-69
2022/01/09 08:54:34;;;;;;;6.38;2.33;;;3.50;77.20;;;;;;4886095;29;20048;-68
2022/01/09 08:56:59;;;;;;;4.45;2.47;;;3.50;77.60;;;;;;4899632;29;20033;-68
2022/01/09 08:59:28;;;;;;;5.32;2.42;;;3.60;77.40;;;;;;4886708;29;20041;-69
2022/01/09 09:01:54;;;;;;;4.53;1.90;;;3.60;76.80;;;;;;4883817;29;20072;-69
2022/01/09 09:04:20;;;;;;;5.18;2.03;;;3.70;76.30;;;;;;4876506;29;20131;-69
2022/01/09 09:06:45;;;;;;;4.10;2.10;;;3.70;76.70;;;;;;4879294;29;20624;-69
2022/01/09 09:09:11;;;;;;;3.83;2.00;;;3.80;76.20;;;;;;4897492;29;20111;-69
2022/01/09 09:11:38;;;;;;;2.72;1.70;;;3.90;76.10;;;;;;4879123;29;20112;-69
2022/01/09 09:14:05;;;;;;;4.95;2.10;;;4.00;75.50;;;;;;4890328;29;20036;-70
2022/01/09 09:16:31;;;;;;;3.08;2.25;;;4.00;75.30;;;;;;4882353;29;20080;-70
2022/01/09 09:18:57;;;;;;;6.15;2.40;;;3.90;75.20;;;;;;4884426;29;20041;-69
2022/01/09 09:21:23;;;;;;;4.05;2.13;;;4.00;75.80;;;;;;4885678;29;20508;-69
2022/01/09 09:23:49;;;;;;;6.00;2.38;;;4.00;75.40;;;;;;4883786;29;20084;-69
2022/01/09 09:26:16;;;;;;;3.10;2.20;;;4.00;74.70;;;;;;4884247;29;20042;-69
2022/01/09 09:28:43;;;;;;;6.93;2.33;;;4.00;75.20;;;;;;4886117;29;20576;-69
2022/01/09 09:31:08;;;;;;;2.95;1.90;;;4.00;75.20;;;;;;4909297;29;20036;-69
2022/01/09 09:33:34;;;;;;;3.97;2.42;;;4.00;74.80;;;;;;4901294;29;20040;-69
2022/01/09 09:36:02;;;;;;;5.25;2.70;;;4.00;75.20;;;;;;4886768;29;20167;-68
2022/01/09 09:38:31;;;;;;;7.60;3.13;;;4.10;75.60;;;;;;4882734;29;20036;-70
2022/01/09 09:40:58;;;;;;;5.38;2.67;;;4.20;74.80;;;;;;4884846;29;20071;-69
2022/01/09 09:43:23;;;;;;;5.55;1.83;;;4.20;75.00;;;;;;4883742;29;20136;-69
2022/01/09 09:45:51;;;;;;;6.13;2.90;;;4.30;74.50;;;;;;4900807;29;20036;-70
2022/01/09 09:48:17;;;;;;;6.60;3.72;;;4.40;74.20;;;;;;4881298;29;20717;-70
2022/01/09 09:50:43;;;;;;;4.80;2.80;;;4.40;73.80;;;;;;4882123;29;20047;-69
2022/01/09 09:53:09;;;;;;;4.88;2.90;;;4.40;73.90;;;;;;4885604;29;20037;-70
2022/01/09 09:55:35;;;;;;;5.40;2.88;;;4.50;74.60;;;;;;4886253;29;20090;-70
2022/01/09 09:58:00;;;;;;;6.03;2.42;;;4.40;73.80;;;;;;4885346;29;20025;-69
2022/01/09 10:00:27;;;;;;;9.43;3.80;;;4.40;73.90;;;;;;4880745;29;20745;-69
2022/01/09 10:02:57;;;;;;;4.45;2.47;;;4.50;73.70;;;;;;4882679;29;20035;-67
2022/01/09 10:05:25;;;;;;;7.13;3.35;;;4.60;73.50;;;;;;4885514;29;20501;-75
2022/01/09 10:07:53;;;;;;;7.32;2.80;;;4.60;73.80;;;;;;4877670;29;20036;-68
2022/01/09 10:10:21;;;;;;;6.65;3.20;;;4.70;73.60;;;;;;4887915;29;20049;-68
2022/01/09 10:12:48;;;;;;;5.28;2.75;;;4.70;72.50;;;;;;4898869;29;20043;-69
2022/01/09 10:15:17;;;;;;;5.40;2.65;;;4.70;73.30;;;;;;4883634;29;20044;-69
2022/01/09 10:17:48;;;;;;;4.75;2.75;;;4.70;73.50;;;;;;4885878;29;20612;-69
2022/01/09 10:20:24;;;;;;;3.63;2.30;;;4.70;73.70;;;;;;4885012;29;20100;-69
2022/01/09 10:22:53;;;;;;;5.07;3.00;;;4.70;73.50;;;;;;4883875;29;20033;-68
2022/01/09 10:25:38;;;;;;;5.20;2.58;;;4.70;73.40;;;;;;4884554;29;20561;-69
2022/01/09 10:28:12;;;;;;;4.03;2.30;;;4.80;73.20;;;;;;4892051;29;20222;-68
2022/01/09 10:30:41;;;;;;;4.28;2.25;;;4.90;72.90;;;;;;4886270;29;20036;-70
2022/01/09 10:33:19;;;;;;;4.10;2.42;;;4.90;73.30;;;;;;4883617;29;20036;-70
2022/01/09 10:35:46;;;;;;;5.22;2.33;;;5.10;72.90;;;;;;4883422;29;20093;-68
2022/01/09 10:38:13;;;;;;;4.65;2.08;;;5.20;72.10;;;;;;4882939;29;20715;-68
2022/01/09 10:40:41;;;;;;;5.43;2.63;;;5.20;72.70;;;;;;4884908;29;20086;-67
2022/01/09 10:43:16;;;;;;;4.88;2.38;;;5.20;71.80;;;;;;4887499;29;20036;-69
2022/01/09 10:45:46;;;;;;;4.53;2.20;;;5.20;71.60;;;;;;4883989;29;20055;-71
2022/01/09 10:48:21;;;;;;;3.13;2.15;;;5.20;72.10;;;;;;4880470;29;20508;-71
2022/01/09 10:50:49;;;;;;;5.00;2.33;;;5.30;71.80;;;;;;4883315;29;20055;-71
2022/01/09 10:53:24;;;;;;;5.07;2.60;;;5.30;71.80;;;;;;4885272;29;20664;-69
2022/01/09 10:56:20;;;;;;;3.78;2.50;;;5.50;71.70;;;;;;4882048;29;20883;-70
2022/01/09 10:58:54;;;;;;;3.95;2.38;;;5.50;70.70;;;;;;4882863;29;20043;-73
2022/01/09 11:01:31;;;;;;;4.82;2.72;;;5.50;70.80;;;;;;4880593;29;20036;-73
2022/01/09 11:04:07;;;;;;;6.93;2.70;;;5.40;72.00;;;;;;4904601;29;20785;-74
2022/01/09 11:06:34;;;;;;;3.92;2.42;;;5.40;72.00;;;;;;4885961;29;20120;-74
2022/01/09 11:09:03;;;;;;;3.85;2.05;;;5.50;71.10;;;;;;4886522;29;20039;-74
2022/01/09 11:11:37;;;;;;;4.13;1.83;;;5.60;70.70;;;;;;4886073;29;20035;-73
2022/01/09 11:14:05;;;;;;;3.33;2.15;;;5.40;72.30;;;;;;4889552;29;20036;-73
2022/01/09 11:16:33;;;;;;;4.20;2.60;;;5.40;71.60;;;;;;4882692;29;20036;-73
2022/01/09 11:19:16;;;;;;;3.22;2.30;;;5.50;71.70;;;;;;4890113;29;20044;-73
2022/01/09 11:21:45;;;;;;;4.47;2.25;;;5.50;71.50;;;;;;4897377;29;20067;-72
2022/01/09 11:24:28;;;;;;;3.42;1.83;;;5.40;72.00;;;;;;4891310;29;20032;-73
2022/01/09 11:27:06;;;;;;;3.55;2.42;;;5.50;72.50;;;;;;4882651;29;21037;-71
2022/01/09 11:29:40;;;;;;;3.88;2.13;;;5.60;71.30;;;;;;4889244;29;20482;-71
2022/01/09 11:32:42;;;;;;;5.03;2.50;;;5.70;71.20;;;;;;4885530;29;20048;-73
2022/01/09 11:35:13;;;;;;;5.22;2.20;;;5.70;71.30;;;;;;4886196;29;20044;-72
2022/01/09 11:38:08;;;;;;;4.55;2.63;;;5.80;71.70;;;;;;4887271;29;20028;-74
2022/01/09 11:40:34;;;;;;;5.13;2.22;;;5.90;71.20;;;;;;4894007;29;20064;-74
2022/01/09 11:43:01;;;;;;;4.88;2.47;;;5.90;71.90;;;;;;4897144;29;20114;-74
2022/01/09 11:45:50;;;;;;;5.22;2.47;;;6.00;70.90;;;;;;4886680;29;20028;-74
2022/01/09 11:48:19;;;;;;;4.35;2.45;;;6.10;70.00;;;;;;4890032;29;20040;-74
2022/01/09 11:51:12;;;;;;;4.45;2.58;;;6.10;69.70;;;;;;4885308;29;20040;-74
2022/01/09 11:53:57;;;;;;;4.93;2.45;;;6.10;71.00;;;;;;4881903;29;20041;-74
2022/01/09 11:56:41;;;;;;;4.13;2.60;;;6.20;70.60;;;;;;4885381;29;20811;-74
2022/01/09 11:59:25;;;;;;;3.65;2.45;;;6.20;70.40;;;;;;4881584;29;20120;-74
2022/01/09 12:02:04;;;;;;;2.35;1.77;;;6.10;71.00;;;;;;4902666;29;20048;-71
2022/01/09 12:04:41;;;;;;;3.85;2.25;;;6.20;70.90;;;;;;4884122;29;20578;-72
2022/01/09 12:07:11;;;;;;;3.42;2.25;;;6.10;71.00;;;;;;4891713;29;20033;-73
2022/01/09 12:09:42;;;;;;;3.75;2.20;;;6.20;70.80;;;;;;4890335;29;20066;-70
2022/01/09 12:12:16;;;;;;;3.58;2.35;;;6.20;71.00;;;;;;4892002;29;20032;-73
2022/01/09 12:14:42;;;;;;;3.65;2.15;;;6.30;70.80;;;;;;4886210;29;20543;-73
2022/01/09 12:17:33;;;;;;;3.17;2.13;;;6.30;70.90;;;;;;4886727;29;20135;-72
2022/01/09 12:20:07;;;;;;;3.42;2.05;;;6.20;71.50;;;;;;4875634;29;20044;-72
2022/01/09 12:22:39;;;;;;;4.68;2.47;;;6.20;71.80;;;;;;4888659;29;20151;-70
2022/01/09 12:25:34;;;;;;;4.15;2.25;;;6.20;72.30;;;;;;4897935;29;20071;-70
2022/01/09 12:28:20;;;;;;;5.35;2.22;;;6.30;72.60;;;;;;4893678;29;20734;-70
2022/01/09 12:30:47;;;;;;;;;;;6.40;71.20;;;;;;4901461;29;20086;-70
2022/01/09 12:33:22;;;;;;;4.57;2.42;;;6.40;71.20;;;;;;4900021;29;20014;-70
2022/01/09 12:35:57;;;;;;;4.22;2.30;;;6.40;71.30;;;;;;4899702;29;20040;-69
2022/01/09 12:38:25;;;;;;;2.43;1.77;;;6.40;70.70;;;;;;4885466;29;20067;-69
2022/01/09 12:40:57;;;;;;;7.82;3.60;;;6.40;71.60;;;;;;4886009;29;20040;-70
2022/01/09 12:43:25;;;;;;;7.95;3.53;;;6.40;71.10;;;;;;4888662;29;20060;-73
2022/01/09 12:45:52;;;;;;;6.47;2.90;;;6.50;71.80;;;;;;4884253;29;20021;-72
2022/01/09 12:48:24;;;;;;;7.93;3.33;;;6.50;71.80;;;;;;4880476;29;20572;-71
2022/01/09 12:50:51;;;;;;;6.47;2.55;;;6.60;70.40;;;;;;4881626;29;20055;-75
2022/01/09 12:53:27;;;;;;;3.83;2.70;;;6.50;70.90;;;;;;4884564;29;20512;-68
2022/01/09 12:55:59;;;;;;;8.45;3.10;;;6.40;71.20;;;;;;4884406;29;20052;-68
2022/01/09 12:58:36;;;;;;;4.55;2.47;;;6.40;71.60;;;;;;4884666;29;20134;-70
2022/01/09 13:01:05;;;;;;;5.70;2.97;;;6.30;72.70;;;;;;4884522;29;20116;-71
2022/01/09 13:03:33;;;;;;;3.75;2.50;;;6.30;73.00;;;;;;4880463;29;20039;-72